Pagrindinis puslapis
METAR-TAF:

METAR-TAF

Oro uostai :

Xiamen, Kinija

platuma: 24-29N, ilguma: 118-05E, Aukštis: 139 m

Dabartinis oras

Ataskaita buvo paskelbta 1 valandą ir 6 minutes, ne 13:00 UTC
Vėjas 4 kt iš Šiaurės/Šiaurės Rytų
Temperatūra 19°C
Drėgmė 68%
Slėgis 1019 hPa
Matomumas 10 km arba daugiau
nėra debesų žemiau 1500 m ir nėra kamuolinių lietaus debesų

METAR: ZSAM 211300Z 03002MPS CAVOK 19/13 Q1019 NOSIG

Laikas: 22:06 (14:06 UTC)

Prognozė

Ataskaita buvo paskelbta 4 valandos ir 53 minutes, ne 09:13 UTC
Prognozė galioja nuo 21 metu 12 UTC su 22 metu 12 UTC
Vėjas 8 kt iš Rytų/Šiaurės Rytų su gūsio iki 17 kt
Matomumas: 8000 m
Su prošvaistėmis ne aukštis 4000 ft

TAF: ZSAM 210913Z 2112/2212 06004G09MPS 8000 BKN040 TX27/2206Z TN20/2121Z

Orai ataskaitas ir orų prognozės (METAR, TAF).

turimą stotys yra geltonos ir raudonos taškus žemėlapyje.

Perkelti pele per norėdami pamatyti stoties vardą.

Tada spustelėkite, norėdami matyti oro stebėjimo ir prognozės.

Norėdami pakeisti žemėlapį: spustelėkite ant žalios mygtukų su juodo kryžiaus žemyn,; žalią mygtuką su brūkšneliu, jei norite nutolinti; arba žalių rodyklių gretimoms žemėlapius.


METAR-TAF: